createdAt,value
2023-05-10T00:00:29.007Z,100937.41
2023-05-10T00:02:55.843Z,100940.06
2023-05-10T00:05:22.455Z,100932.97
2023-05-10T00:07:49.095Z,100934.50
2023-05-10T00:10:15.902Z,100934.34
2023-05-10T00:12:50.551Z,100937.84
2023-05-10T00:15:17.052Z,100936.28
2023-05-10T00:17:43.572Z,100928.59
2023-05-10T00:20:10.927Z,100930.28
2023-05-10T00:22:37.385Z,100930.28
2023-05-10T00:25:04.195Z,100919.53
2023-05-10T00:27:30.835Z,100933.47
2023-05-10T00:29:59.938Z,100925.41
2023-05-10T00:32:26.486Z,100922.31
2023-05-10T00:34:52.982Z,100926.66
2023-05-10T00:37:19.494Z,100927.72
2023-05-10T00:39:46.087Z,100932.75
2023-05-10T00:42:12.607Z,100928.03
2023-05-10T00:44:41.827Z,100927.91
2023-05-10T00:47:09.184Z,100931.25
2023-05-10T00:49:36.634Z,100921.34
2023-05-10T00:52:04.052Z,100923.81
2023-05-10T00:54:31.243Z,100923.81
2023-05-10T00:57:00.026Z,100923.66
2023-05-10T00:59:26.859Z,100929.66
2023-05-10T01:01:54.267Z,100931.47
2023-05-10T01:04:26.477Z,100928.69
2023-05-10T01:06:54.446Z,100933.00
2023-05-10T01:09:22.350Z,100932.03
2023-05-10T01:11:50.016Z,100930.91
2023-05-10T01:14:20.850Z,100925.47
2023-05-10T01:16:49.354Z,100934.25
2023-05-10T01:19:27.593Z,100931.59
2023-05-10T01:22:06.402Z,100929.66
2023-05-10T01:24:39.013Z,100934.13
2023-05-10T01:27:38.687Z,100933.13
2023-05-10T01:30:28.798Z,100933.00
2023-05-10T01:32:58.275Z,100927.69
2023-05-10T01:35:33.579Z,100932.31
2023-05-10T01:38:11.469Z,100930.78
2023-05-10T01:40:51.232Z,100934.13
2023-05-10T01:43:29.486Z,100927.97
2023-05-10T01:46:11.739Z,100939.56
2023-05-10T01:48:47.280Z,100935.78
2023-05-10T01:51:17.867Z,100937.59
2023-05-10T01:53:49.703Z,100936.63
2023-05-10T01:56:17.135Z,100936.44
2023-05-10T01:58:47.836Z,100937.16
2023-05-10T02:01:17.709Z,100936.31
2023-05-10T02:03:44.980Z,100933.66
2023-05-10T02:06:13.833Z,100932.81
2023-05-10T02:08:42.161Z,100937.16
2023-05-10T02:11:10.042Z,100940.63
2023-05-10T02:13:40.679Z,100944.41
2023-05-10T02:16:08.395Z,100942.78
2023-05-10T02:18:37.634Z,100940.94
2023-05-10T02:21:05.086Z,100937.59
2023-05-10T02:23:33.999Z,100948.22
2023-05-10T02:26:02.884Z,100949.19
2023-05-10T02:28:30.658Z,100946.69
2023-05-10T02:30:57.665Z,100947.09
2023-05-10T02:33:25.365Z,100955.34
2023-05-10T02:35:52.335Z,100953.81
2023-05-10T02:38:21.822Z,100950.31
2023-05-10T02:40:49.206Z,100955.63
2023-05-10T02:43:18.156Z,100958.28
2023-05-10T02:45:49.152Z,100959.44
2023-05-10T02:48:17.126Z,100972.13
2023-05-10T02:50:49.643Z,100966.81
2023-05-10T02:53:21.938Z,100962.50
2023-05-10T02:55:52.778Z,100965.16
2023-05-10T02:58:20.374Z,100968.09
2023-05-10T03:00:47.581Z,100965.28
2023-05-10T03:03:14.404Z,100971.84
2023-05-10T03:05:40.866Z,100970.16
2023-05-10T03:08:07.694Z,100976.03
2023-05-10T03:10:39.050Z,100970.75
2023-05-10T03:13:33.717Z,100972.00
2023-05-10T03:16:10.348Z,100974.78
2023-05-10T03:18:47.129Z,100973.13
2023-05-10T03:21:17.446Z,100976.03
2023-05-10T03:24:01.372Z,100976.19
2023-05-10T03:26:32.286Z,100981.63
2023-05-10T03:29:00.111Z,100990.28
2023-05-10T03:31:27.104Z,100991.09
2023-05-10T03:33:53.964Z,100983.16
2023-05-10T03:36:22.056Z,100986.50
2023-05-10T03:38:48.613Z,100989.97
2023-05-10T03:41:15.166Z,100987.19
2023-05-10T03:43:42.169Z,100986.22
2023-05-10T03:46:08.782Z,100987.75
2023-05-10T03:48:35.937Z,100987.75
2023-05-10T03:51:02.458Z,100986.91
2023-05-10T03:53:28.989Z,100983.44
2023-05-10T03:55:55.643Z,100981.75
2023-05-10T03:58:22.957Z,100989.72
2023-05-10T04:00:49.617Z,100989.84
2023-05-10T04:03:16.525Z,100993.34
2023-05-10T04:05:45.696Z,100988.88
2023-05-10T04:08:12.421Z,100989.72
2023-05-10T04:10:39.222Z,100986.09
2023-05-10T04:13:05.822Z,100986.91
2023-05-10T04:15:32.340Z,100992.09
2023-05-10T04:17:58.923Z,100992.09
2023-05-10T04:20:25.551Z,100994.47
2023-05-10T04:22:52.186Z,100992.50
2023-05-10T04:25:18.711Z,100999.47
2023-05-10T04:27:45.213Z,100996.66
2023-05-10T04:30:12.222Z,100987.75
2023-05-10T04:32:38.788Z,100994.72
2023-05-10T04:35:05.743Z,100985.78
2023-05-10T04:37:32.259Z,100994.56
2023-05-10T04:40:00.899Z,100992.75
2023-05-10T04:42:27.364Z,100991.78
2023-05-10T04:44:57.333Z,100992.50
2023-05-10T04:47:23.897Z,100996.69
2023-05-10T04:49:50.378Z,101004.75
2023-05-10T04:52:18.414Z,101003.66
2023-05-10T04:54:44.942Z,101005.19
2023-05-10T04:57:11.736Z,101003.50
2023-05-10T04:59:38.626Z,101004.88
2023-05-10T05:02:06.052Z,101011.72
2023-05-10T05:04:32.698Z,101024.84
2023-05-10T05:06:59.185Z,101014.94
2023-05-10T05:09:25.698Z,101023.47
2023-05-10T05:11:52.761Z,101016.22
2023-05-10T05:14:19.255Z,101022.09
2023-05-10T05:16:45.782Z,101024.28
2023-05-10T05:19:12.276Z,101026.78
2023-05-10T05:21:39.113Z,101023.88
2023-05-10T05:24:06.155Z,101026.50
2023-05-10T05:26:32.683Z,101029.03
2023-05-10T05:28:59.183Z,101032.66
2023-05-10T05:31:26.050Z,101037.97
2023-05-10T05:33:52.728Z,101041.44
2023-05-10T05:36:19.638Z,101041.31
2023-05-10T05:38:46.178Z,101031.53
2023-05-10T05:41:13.113Z,101044.66
2023-05-10T05:43:39.579Z,101048.84
2023-05-10T05:46:06.556Z,101044.38
2023-05-10T05:48:36.448Z,101050.34
2023-05-10T05:51:03.432Z,101047.41
2023-05-10T05:53:31.216Z,101046.16
2023-05-10T05:55:59.404Z,101048.69
2023-05-10T05:58:26.876Z,101054.81
2023-05-10T06:00:53.629Z,101060.25
2023-05-10T06:03:20.766Z,101061.38
2023-05-10T06:05:47.889Z,101066.25
2023-05-10T06:08:14.314Z,101070.47
2023-05-10T06:10:40.771Z,101068.25
2023-05-10T06:13:07.569Z,101079.00
2023-05-10T06:15:34.452Z,101073.69
2023-05-10T06:18:01.230Z,101070.75
2023-05-10T06:20:27.862Z,101078.00
2023-05-10T06:22:55.705Z,101080.53
2023-05-10T06:25:22.396Z,101084.72
2023-05-10T06:27:52.588Z,101090.72
2023-05-10T06:30:20.396Z,101081.09
2023-05-10T06:32:47.257Z,101082.91
2023-05-10T06:35:14.162Z,101077.19
2023-05-10T06:37:40.831Z,101071.44
2023-05-10T06:40:08.221Z,101078.41
2023-05-10T06:42:34.682Z,101084.94
2023-05-10T06:45:04.762Z,101085.09
2023-05-10T06:47:31.242Z,101091.09
2023-05-10T06:50:00.704Z,101088.84
2023-05-10T06:52:27.161Z,101094.00
2023-05-10T06:54:53.692Z,101096.25
2023-05-10T06:57:31.122Z,101103.63
2023-05-10T07:00:02.558Z,101096.75
2023-05-10T07:02:29.500Z,101105.13
2023-05-10T07:04:56.127Z,101109.44
2023-05-10T07:07:22.651Z,101103.75
2023-05-10T07:09:50.608Z,101119.25
2023-05-10T07:12:17.123Z,101115.22
2023-05-10T07:14:43.641Z,101122.19
2023-05-10T07:17:10.862Z,101123.59
2023-05-10T07:19:37.431Z,101115.91
2023-05-10T07:22:04.118Z,101118.38
2023-05-10T07:24:32.233Z,101120.69
2023-05-10T07:26:58.962Z,101121.69
2023-05-10T07:29:25.489Z,101123.91
2023-05-10T07:31:52.357Z,101132.06
2023-05-10T07:34:19.003Z,101130.69
2023-05-10T07:36:45.453Z,101139.22
2023-05-10T07:39:16.241Z,101142.16
2023-05-10T07:41:49.129Z,101148.28
2023-05-10T07:44:15.804Z,101143.66
2023-05-10T07:46:42.269Z,101148.78
2023-05-10T07:49:08.756Z,101149.16
2023-05-10T07:51:35.363Z,101157.31
2023-05-10T07:54:03.611Z,101149.63
2023-05-10T07:56:32.800Z,101155.34
2023-05-10T07:59:00.768Z,101156.59
2023-05-10T08:01:30.739Z,101147.38
2023-05-10T08:03:57.264Z,101157.31
2023-05-10T08:06:23.737Z,101158.56
2023-05-10T08:08:51.492Z,101165.72
2023-05-10T08:11:18.568Z,101168.09
2023-05-10T08:13:49.785Z,101169.91
2023-05-10T08:16:17.672Z,101173.97
2023-05-10T08:18:46.421Z,101175.78
2023-05-10T08:21:14.461Z,101179.72
2023-05-10T08:23:41.608Z,101181.53
2023-05-10T08:26:08.079Z,101178.16
2023-05-10T08:28:34.624Z,101178.59
2023-05-10T08:31:01.297Z,101176.34
2023-05-10T08:33:28.046Z,101178.13
2023-05-10T08:35:54.478Z,101188.03
2023-05-10T08:38:21.290Z,101196.28
2023-05-10T08:40:50.346Z,101195.47
2023-05-10T08:43:16.915Z,101196.53
2023-05-10T08:45:46.359Z,101200.72
2023-05-10T08:48:12.881Z,101201.25
2023-05-10T08:50:41.068Z,101204.19
2023-05-10T08:53:11.996Z,101204.41
2023-05-10T08:55:39.837Z,101222.59
2023-05-10T08:58:06.871Z,101215.53
2023-05-10T09:00:34.647Z,101221.06
2023-05-10T09:03:02.589Z,101220.75
2023-05-10T09:05:29.540Z,101211.88
2023-05-10T09:07:56.326Z,101211.84
2023-05-10T09:10:24.082Z,101213.97
2023-05-10T09:12:51.048Z,101214.13
2023-05-10T09:15:20.323Z,101213.69
2023-05-10T09:17:48.260Z,101219.34
2023-05-10T09:20:15.043Z,101217.56
2023-05-10T09:22:41.785Z,101216.09
2023-05-10T09:25:15.824Z,101221.09
2023-05-10T09:27:46.576Z,101223.72
2023-05-10T09:30:29.456Z,101220.31
2023-05-10T09:32:57.293Z,101227.72
2023-05-10T09:35:29.347Z,101231.97
2023-05-10T09:37:58.555Z,101225.81
2023-05-10T09:40:26.708Z,101240.19
2023-05-10T09:43:00.571Z,101240.72
2023-05-10T09:45:29.151Z,101248.59
2023-05-10T09:47:56.581Z,101240.91
2023-05-10T09:50:24.073Z,101245.91
2023-05-10T09:53:01.660Z,101245.06
2023-05-10T09:55:50.240Z,101253.44
2023-05-10T09:58:16.917Z,101249.88
2023-05-10T10:00:45.988Z,101256.28
2023-05-10T10:03:21.345Z,101257.56
2023-05-10T10:05:51.250Z,101261.94
2023-05-10T10:08:18.655Z,101252.09
2023-05-10T10:10:47.017Z,101263.75
2023-05-10T10:13:14.244Z,101261.53
2023-05-10T10:15:40.941Z,101266.13
2023-05-10T10:18:08.971Z,101266.66
2023-05-10T10:20:38.574Z,101268.84
2023-05-10T10:23:05.201Z,101265.00
2023-05-10T10:25:32.108Z,101259.00
2023-05-10T10:28:33.491Z,101266.22
2023-05-10T10:31:16.830Z,101270.88
2023-05-10T10:34:02.102Z,101267.22
2023-05-10T10:36:28.789Z,101271.03
2023-05-10T10:39:00.473Z,101273.56
2023-05-10T10:41:32.211Z,101278.19
2023-05-10T10:44:26.349Z,101279.69
2023-05-10T10:47:30.839Z,101277.19
2023-05-10T10:50:06.192Z,101278.19
2023-05-10T10:52:39.985Z,101281.22
2023-05-10T10:55:23.374Z,101281.41
2023-05-10T10:58:01.376Z,101277.72
2023-05-10T11:00:33.160Z,101275.75
2023-05-10T11:03:19.783Z,101275.28
2023-05-10T11:05:50.534Z,101277.75
2023-05-10T11:08:35.759Z,101279.91
2023-05-10T11:11:10.611Z,101279.28
2023-05-10T11:13:44.612Z,101284.09
2023-05-10T11:16:21.345Z,101281.56
2023-05-10T11:19:09.286Z,101280.84
2023-05-10T11:21:47.088Z,101280.53
2023-05-10T11:24:19.993Z,101278.38
2023-05-10T11:26:46.867Z,101283.22
2023-05-10T11:29:14.699Z,101286.59
2023-05-10T11:31:46.136Z,101276.28
2023-05-10T11:34:13.632Z,101287.97
2023-05-10T11:36:40.096Z,101283.63
2023-05-10T11:39:07.707Z,101275.50
2023-05-10T11:41:34.296Z,101280.81
2023-05-10T11:44:00.977Z,101277.41
2023-05-10T11:46:30.778Z,101274.97
2023-05-10T11:49:02.905Z,101282.38
2023-05-10T11:51:29.575Z,101284.25
2023-05-10T11:53:57.705Z,101282.75
2023-05-10T11:56:27.547Z,101279.22
2023-05-10T11:59:00.912Z,101282.38
2023-05-10T12:01:31.709Z,101283.66
2023-05-10T12:04:01.751Z,101294.00
2023-05-10T12:06:30.449Z,101290.69
2023-05-10T12:08:57.049Z,101296.69
2023-05-10T12:11:27.263Z,101295.00
2023-05-10T12:13:56.049Z,101291.13
2023-05-10T12:16:23.608Z,101287.69
2023-05-10T12:18:57.195Z,101292.53
2023-05-10T12:21:23.930Z,101289.13
2023-05-10T12:23:55.525Z,101286.69
2023-05-10T12:26:27.288Z,101293.34
2023-05-10T12:29:19.969Z,101293.50
2023-05-10T12:31:58.004Z,101296.06
2023-05-10T12:34:37.161Z,101289.72
2023-05-10T12:37:04.245Z,101290.53
2023-05-10T12:39:45.258Z,101292.50
2023-05-10T12:42:12.185Z,101294.28
2023-05-10T12:44:44.049Z,101284.16
2023-05-10T12:47:10.430Z,101290.22
2023-05-10T12:49:36.949Z,101295.28
2023-05-10T12:52:03.682Z,101292.91
2023-05-10T12:54:30.086Z,101293.34
2023-05-10T12:56:56.611Z,101297.38
2023-05-10T12:59:23.803Z,101296.53
2023-05-10T13:01:50.561Z,101301.53
2023-05-10T13:04:17.107Z,101301.72
2023-05-10T13:06:43.689Z,101308.78
2023-05-10T13:09:10.117Z,101313.00
2023-05-10T13:11:36.914Z,101312.25
2023-05-10T13:14:04.367Z,101315.56
2023-05-10T13:16:31.081Z,101329.03
2023-05-10T13:18:57.630Z,101328.78
2023-05-10T13:21:25.587Z,101332.00
2023-05-10T13:23:52.231Z,101332.97
2023-05-10T13:26:18.656Z,101338.78
2023-05-10T13:28:45.079Z,101335.66
2023-05-10T13:31:14.366Z,101348.72
2023-05-10T13:33:43.241Z,101347.81
2023-05-10T13:36:09.806Z,101355.66
2023-05-10T13:38:36.391Z,101357.09
2023-05-10T13:41:05.552Z,101359.53
2023-05-10T13:43:32.042Z,101368.91
2023-05-10T13:45:58.699Z,101369.59
2023-05-10T13:48:25.177Z,101377.56
2023-05-10T13:50:51.667Z,101371.69
2023-05-10T13:53:18.084Z,101369.19
2023-05-10T13:55:45.095Z,101370.16
2023-05-10T13:58:11.897Z,101366.94
2023-05-10T14:00:38.320Z,101363.59
2023-05-10T14:03:06.251Z,101369.16
2023-05-10T14:05:33.105Z,101374.63
2023-05-10T14:07:59.507Z,101376.72
2023-05-10T14:10:25.928Z,101367.63
2023-05-10T14:12:52.698Z,101367.22
2023-05-10T14:15:19.441Z,101371.41
2023-05-10T14:17:46.072Z,101364.97
2023-05-10T14:20:12.518Z,101371.97
2023-05-10T14:22:38.910Z,101377.41
2023-05-10T14:25:05.706Z,101372.09
2023-05-10T14:27:33.628Z,101380.06
2023-05-10T14:30:01.205Z,101380.75
2023-05-10T14:32:29.017Z,101375.59
2023-05-10T14:34:55.848Z,101381.50
2023-05-10T14:37:23.470Z,101376.56
2023-05-10T14:39:49.934Z,101372.66
2023-05-10T14:42:16.357Z,101366.94
2023-05-10T14:44:42.803Z,101365.66
2023-05-10T14:47:10.591Z,101362.31
2023-05-10T14:49:38.327Z,101362.88
2023-05-10T14:52:04.741Z,101361.31
2023-05-10T14:54:31.192Z,101360.03
2023-05-10T14:56:57.647Z,101364.25
2023-05-10T14:59:24.082Z,101362.56
2023-05-10T15:01:50.895Z,101362.94
2023-05-10T15:04:17.934Z,101364.47
2023-05-10T15:06:45.238Z,101367.56
2023-05-10T15:09:11.745Z,101366.94
2023-05-10T15:11:38.258Z,101365.50
2023-05-10T15:14:04.648Z,101367.53
2023-05-10T15:16:35.027Z,101367.19
2023-05-10T15:19:02.720Z,101364.63
2023-05-10T15:21:29.216Z,101360.75
2023-05-10T15:23:55.710Z,101361.44
2023-05-10T15:26:23.016Z,101359.81
2023-05-10T15:28:49.739Z,101363.28
2023-05-10T15:31:16.238Z,101368.53
2023-05-10T15:33:42.684Z,101370.50
2023-05-10T15:36:09.118Z,101373.56
2023-05-10T15:38:35.653Z,101371.56
2023-05-10T15:41:02.531Z,101365.75
2023-05-10T15:43:29.673Z,101363.63
2023-05-10T15:45:56.565Z,101372.41
2023-05-10T15:48:23.641Z,101365.16
2023-05-10T15:50:50.387Z,101373.81
2023-05-10T15:53:16.946Z,101380.09
2023-05-10T15:55:44.241Z,101379.38
2023-05-10T15:58:11.544Z,101385.84
2023-05-10T16:00:39.333Z,101379.44
2023-05-10T16:03:08.649Z,101386.97
2023-05-10T16:05:35.395Z,101385.69
2023-05-10T16:08:05.364Z,101395.97
2023-05-10T16:10:33.257Z,101395.44
2023-05-10T16:13:00.512Z,101395.94
2023-05-10T16:15:27.747Z,101396.66
2023-05-10T16:17:54.588Z,101402.28
2023-05-10T16:20:21.229Z,101393.72
2023-05-10T16:22:47.684Z,101390.50
2023-05-10T16:25:14.497Z,101398.56
2023-05-10T16:27:41.077Z,101397.28
2023-05-10T16:30:08.897Z,101401.88
2023-05-10T16:32:35.532Z,101399.91
2023-05-10T16:35:02.135Z,101402.91
2023-05-10T16:37:31.631Z,101398.91
2023-05-10T16:39:58.162Z,101405.66
2023-05-10T16:42:26.146Z,101401.56
2023-05-10T16:44:53.967Z,101401.78
2023-05-10T16:47:20.436Z,101403.31
2023-05-10T16:49:46.957Z,101397.56
2023-05-10T16:52:14.227Z,101407.78
2023-05-10T16:54:40.744Z,101403.44
2023-05-10T16:57:08.560Z,101401.84
2023-05-10T16:59:35.130Z,101405.09
2023-05-10T17:02:01.900Z,101404.78
2023-05-10T17:04:28.645Z,101405.81
2023-05-10T17:06:55.080Z,101406.34
2023-05-10T17:09:21.562Z,101400.94
2023-05-10T17:11:47.994Z,101402.59
2023-05-10T17:14:14.606Z,101407.09
2023-05-10T17:16:41.910Z,101410.91
2023-05-10T17:19:09.256Z,101409.31
2023-05-10T17:21:36.290Z,101415.63
2023-05-10T17:24:02.757Z,101413.44
2023-05-10T17:26:30.107Z,101418.25
2023-05-10T17:28:57.433Z,101418.41
2023-05-10T17:31:23.999Z,101428.38
2023-05-10T17:33:50.390Z,101422.19
2023-05-10T17:36:16.847Z,101430.13
2023-05-10T17:38:43.520Z,101428.41
2023-05-10T17:41:10.085Z,101435.13
2023-05-10T17:43:36.571Z,101441.06
2023-05-10T17:46:03.697Z,101439.03
2023-05-10T17:48:33.118Z,101438.19
2023-05-10T17:50:59.871Z,101444.50
2023-05-10T17:53:26.317Z,101454.00
2023-05-10T17:55:52.813Z,101453.41
2023-05-10T17:58:19.284Z,101454.25
2023-05-10T18:00:46.395Z,101451.97
2023-05-10T18:03:12.961Z,101449.44
2023-05-10T18:05:39.658Z,101450.69
2023-05-10T18:08:07.444Z,101456.59
2023-05-10T18:10:34.521Z,101445.19
2023-05-10T18:13:02.486Z,101449.75
2023-05-10T18:15:28.973Z,101455.16
2023-05-10T18:17:56.990Z,101450.69
2023-05-10T18:20:23.523Z,101455.09
2023-05-10T18:22:50.310Z,101455.53
2023-05-10T18:25:17.284Z,101451.66
2023-05-10T18:27:44.064Z,101458.28
2023-05-10T18:30:12.746Z,101459.22
2023-05-10T18:32:39.759Z,101460.78
2023-05-10T18:35:07.900Z,101461.63
2023-05-10T18:37:35.053Z,101461.63
2023-05-10T18:40:02.008Z,101460.22
2023-05-10T18:42:32.732Z,101461.63
2023-05-10T18:44:59.188Z,101457.56
2023-05-10T18:47:26.666Z,101463.38
2023-05-10T18:49:53.346Z,101467.28
2023-05-10T18:52:19.870Z,101470.25
2023-05-10T18:54:46.617Z,101477.16
2023-05-10T18:57:13.911Z,101470.72
2023-05-10T18:59:40.487Z,101473.81
2023-05-10T19:02:07.426Z,101477.06
2023-05-10T19:04:34.237Z,101478.47
2023-05-10T19:07:02.041Z,101472.06
2023-05-10T19:09:28.879Z,101479.91
2023-05-10T19:11:55.518Z,101474.47
2023-05-10T19:14:25.553Z,101484.97
2023-05-10T19:16:53.685Z,101488.50
2023-05-10T19:19:20.704Z,101494.34
2023-05-10T19:21:48.202Z,101492.94
2023-05-10T19:24:14.766Z,101494.19
2023-05-10T19:26:41.561Z,101495.06
2023-05-10T19:29:11.079Z,101488.75
2023-05-10T19:31:40.119Z,101493.50
2023-05-10T19:34:06.556Z,101495.44
2023-05-10T19:36:34.420Z,101496.13
2023-05-10T19:39:03.007Z,101515.41
2023-05-10T19:41:29.482Z,101516.38
2023-05-10T19:43:56.162Z,101519.56
2023-05-10T19:46:22.857Z,101518.19
2023-05-10T19:48:49.386Z,101511.41
2023-05-10T19:51:15.889Z,101514.78
2023-05-10T19:53:45.186Z,101515.88
2023-05-10T19:56:13.343Z,101513.34
2023-05-10T19:58:40.860Z,101510.97
2023-05-10T20:01:07.715Z,101510.38
2023-05-10T20:03:35.613Z,101514.44
2023-05-10T20:06:03.002Z,101520.84
2023-05-10T20:08:30.041Z,101527.25
2023-05-10T20:10:59.250Z,101519.56
2023-05-10T20:13:25.785Z,101522.88
2023-05-10T20:15:55.809Z,101528.59
2023-05-10T20:18:23.059Z,101525.47
2023-05-10T20:20:57.591Z,101524.09
2023-05-10T20:23:24.158Z,101527.16
2023-05-10T20:25:51.372Z,101525.94
2023-05-10T20:28:23.456Z,101530.84
2023-05-10T20:30:54.896Z,101537.41
2023-05-10T20:33:22.257Z,101537.03
2023-05-10T20:35:50.345Z,101532.31
2023-05-10T20:38:18.158Z,101530.09
2023-05-10T20:40:44.914Z,101538.78
2023-05-10T20:43:11.427Z,101540.88
2023-05-10T20:45:38.090Z,101535.16
2023-05-10T20:48:04.891Z,101540.47
2023-05-10T20:50:31.509Z,101532.13
2023-05-10T20:52:57.952Z,101527.06
2023-05-10T20:55:24.533Z,101538.66
2023-05-10T20:57:51.491Z,101541.44
2023-05-10T21:00:18.455Z,101536.00
2023-05-10T21:02:46.106Z,101537.81
2023-05-10T21:05:12.767Z,101537.69
2023-05-10T21:07:39.465Z,101541.31
2023-05-10T21:10:10.470Z,101531.41
2023-05-10T21:12:37.534Z,101532.25
2023-05-10T21:15:04.634Z,101534.19
2023-05-10T21:17:31.139Z,101527.34
2023-05-10T21:19:57.665Z,101536.13
2023-05-10T21:22:24.108Z,101535.03
2023-05-10T21:24:50.545Z,101529.84
2023-05-10T21:27:16.975Z,101534.31
2023-05-10T21:29:43.690Z,101528.19
2023-05-10T21:32:10.495Z,101526.63
2023-05-10T21:34:36.978Z,101523.25
2023-05-10T21:37:03.701Z,101529.53
2023-05-10T21:39:30.442Z,101533.59
2023-05-10T21:41:56.962Z,101520.59
2023-05-10T21:44:23.411Z,101518.19
2023-05-10T21:46:50.189Z,101524.72
2023-05-10T21:49:17.845Z,101524.84
2023-05-10T21:51:44.339Z,101522.50
2023-05-10T21:54:11.025Z,101527.09
2023-05-10T21:56:37.717Z,101523.59
2023-05-10T21:59:04.565Z,101527.47
2023-05-10T22:01:32.097Z,101528.59
2023-05-10T22:03:58.565Z,101525.94
2023-05-10T22:06:25.020Z,101522.56
2023-05-10T22:08:52.972Z,101520.16
2023-05-10T22:11:19.663Z,101530.78
2023-05-10T22:13:48.646Z,101531.19
2023-05-10T22:16:17.060Z,101538.31
2023-05-10T22:18:44.198Z,101538.44
2023-05-10T22:21:10.850Z,101536.50
2023-05-10T22:23:37.364Z,101539.16
2023-05-10T22:26:04.584Z,101541.81
2023-05-10T22:28:31.128Z,101537.34
2023-05-10T22:30:57.602Z,101533.97
2023-05-10T22:33:24.152Z,101531.59
2023-05-10T22:35:50.851Z,101536.88
2023-05-10T22:38:19.042Z,101544.72
2023-05-10T22:40:45.505Z,101540.38
2023-05-10T22:43:12.095Z,101531.59
2023-05-10T22:45:38.654Z,101538.69
2023-05-10T22:48:05.500Z,101540.38
2023-05-10T22:50:32.020Z,101544.59
2023-05-10T22:52:58.478Z,101535.91
2023-05-10T22:55:25.145Z,101544.00
2023-05-10T22:57:52.637Z,101541.47
2023-05-10T23:00:19.875Z,101545.22
2023-05-10T23:02:46.689Z,101543.69
2023-05-10T23:05:13.421Z,101538.66
2023-05-10T23:07:39.887Z,101542.28
2023-05-10T23:10:06.974Z,101541.56
2023-05-10T23:12:33.965Z,101547.13
2023-05-10T23:15:02.758Z,101541.81
2023-05-10T23:17:29.293Z,101553.53
2023-05-10T23:19:56.000Z,101553.53
2023-05-10T23:22:22.535Z,101547.50
2023-05-10T23:24:49.223Z,101553.78
2023-05-10T23:27:15.884Z,101560.03
2023-05-10T23:29:42.467Z,101556.44
2023-05-10T23:32:09.219Z,101560.75
2023-05-10T23:34:36.066Z,101555.47
2023-05-10T23:37:02.618Z,101556.31
2023-05-10T23:39:29.225Z,101558.94
2023-05-10T23:41:55.932Z,101555.34
2023-05-10T23:44:22.839Z,101560.63
2023-05-10T23:46:49.429Z,101553.53
2023-05-10T23:49:17.273Z,101561.47
2023-05-10T23:51:43.849Z,101559.78
2023-05-10T23:54:10.420Z,101557.97
2023-05-10T23:56:37.550Z,101559.91
2023-05-10T23:59:05.900Z,101556.56
